Enter the Airport ICAO Code

Search by Airport or City

Current Weather

LEAM | Almería Airport

Almería, Andalusia, Spain

Last Update 30 Minutes Ago

Clear Sky

Temperature of 28 ºC

Light to Moderate Winds from SouthWest

Temperature

28 ºC

Dew Point Temperature

22 ºC

Relative Humidity

70.07 %

Wind Direction

SouthWest (220º, Ranging from 190º to 250º)

Wind Velocity

17 km/h (09 kt)

Gusts

None

Visibility

No Significant Reductions

Sea Level Pressure

1017 hPa (Hectopascals)

Layers of Clouds

None

METAR LEAM 131000Z 22009KT 190V250 CAVOK 28/22 Q1017

Weather Forecast

LEAM | Almería Airport

Almería, Andalusia, Spain

Forecast valid for the next 23 Hours

From now on it is expected:

Clear Sky

Light to Moderate Winds from South

In 1 hour it is expected the begining of 9 hours with intermittent periods of:

Moderate Winds from East

In 13 to 15 hours it is expected the begining of:

Moderate Winds from North

In 22 to 23 hours it is expected the begining of:

Moderate Winds from East

Maximum Temperature

29 ºC in 2 Hours

Minimum Temperature

24 ºC in 18 Hours

TAF LEAM 130800Z 1309/1409 20008KT CAVOK TX29/1312Z TN24/1404Z PROB40 TEMPO 1311/1320 08010KT BECMG 1323/1401 34010KT BECMG 1408/1409 09010KT